N655FX KLAS-KLAX
Flight info
| Callsign | N655FX |
|---|---|
| Flight time | 0h 37m |
| Altitude | 28000 |
| Route | RADYR2 BLAQQ SHTNR ANJLL4 |
| Aircraft | GLF6/M-SFGHIRWXY/S |
Departure
| Time | 2026-05-06 04:42 |
|---|---|
| Airport | Harry Reid International Airport (KLAS) |
Arrival
| Time | 2026-05-06 05:20 |
|---|---|
| Airport | Los Angeles International Airport (KLAX) |
| Time | Latitude | Longitude | Altitude | Speed | Heading |
|---|---|---|---|---|---|
| 2026-05-06 04:12 | 36.08321 | -115.17007 | 2175 ft | 0 kts | 89° |
| 2026-05-06 04:30 | 36.08321 | -115.16995 | 2175 ft | 2 kts | 89° |
| 2026-05-06 04:30 | 36.08321 | -115.16968 | 2175 ft | 3 kts | 95° |
| 2026-05-06 04:31 | 36.08309 | -115.16938 | 2174 ft | 3 kts | 138° |
| 2026-05-06 04:31 | 36.08289 | -115.16928 | 2174 ft | 2 kts | 174° |
| 2026-05-06 04:31 | 36.08279 | -115.16927 | 2175 ft | 0 kts | 178° |
| 2026-05-06 04:31 | 36.08276 | -115.16927 | 2175 ft | 1 kts | 179° |
| 2026-05-06 04:32 | 36.08252 | -115.16936 | 2175 ft | 6 kts | 201° |
| 2026-05-06 04:32 | 36.08191 | -115.16966 | 2177 ft | 11 kts | 201° |
| 2026-05-06 04:32 | 36.08143 | -115.16950 | 2178 ft | 8 kts | 100° |
| 2026-05-06 04:32 | 36.08208 | -115.16891 | 2175 ft | 15 kts | 24° |
| 2026-05-06 04:33 | 36.08279 | -115.16826 | 2173 ft | 9 kts | 105° |
| 2026-05-06 04:33 | 36.08243 | -115.16737 | 2170 ft | 13 kts | 122° |
| 2026-05-06 04:33 | 36.08196 | -115.16622 | 2166 ft | 16 kts | 116° |
| 2026-05-06 04:33 | 36.08160 | -115.16487 | 2162 ft | 15 kts | 86° |
| 2026-05-06 04:34 | 36.08161 | -115.16339 | 2159 ft | 18 kts | 91° |
| 2026-05-06 04:34 | 36.08161 | -115.16167 | 2153 ft | 22 kts | 90° |
| 2026-05-06 04:34 | 36.08161 | -115.15982 | 2149 ft | 16 kts | 89° |
| 2026-05-06 04:34 | 36.08161 | -115.15820 | 2143 ft | 20 kts | 91° |
| 2026-05-06 04:35 | 36.08162 | -115.15624 | 2136 ft | 24 kts | 91° |
| 2026-05-06 04:35 | 36.08159 | -115.15477 | 2130 ft | 8 kts | 104° |
| 2026-05-06 04:35 | 36.08116 | -115.15443 | 2131 ft | 7 kts | 179° |
| 2026-05-06 04:35 | 36.08078 | -115.15442 | 2132 ft | 3 kts | 176° |
| 2026-05-06 04:36 | 36.08063 | -115.15438 | 2132 ft | 0 kts | 167° |
| 2026-05-06 04:36 | 36.08049 | -115.15433 | 2133 ft | 4 kts | 162° |
| 2026-05-06 04:36 | 36.08001 | -115.15407 | 2133 ft | 11 kts | 156° |
| 2026-05-06 04:36 | 36.07904 | -115.15350 | 2133 ft | 16 kts | 153° |
| 2026-05-06 04:37 | 36.07879 | -115.15222 | 2129 ft | 17 kts | 92° |
| 2026-05-06 04:37 | 36.07874 | -115.15059 | 2123 ft | 20 kts | 94° |
| 2026-05-06 04:37 | 36.07861 | -115.14874 | 2116 ft | 23 kts | 95° |
| 2026-05-06 04:37 | 36.07849 | -115.14693 | 2112 ft | 20 kts | 95° |
| 2026-05-06 04:38 | 36.07838 | -115.14510 | 2106 ft | 22 kts | 94° |
| 2026-05-06 04:38 | 36.07826 | -115.14307 | 2099 ft | 24 kts | 91° |
| 2026-05-06 04:38 | 36.07827 | -115.14088 | 2093 ft | 26 kts | 91° |
| 2026-05-06 04:38 | 36.07828 | -115.13859 | 2087 ft | 25 kts | 91° |
| 2026-05-06 04:39 | 36.07827 | -115.13634 | 2080 ft | 27 kts | 89° |
| 2026-05-06 04:39 | 36.07828 | -115.13456 | 2076 ft | 16 kts | 89° |
| 2026-05-06 04:39 | 36.07827 | -115.13304 | 2070 ft | 18 kts | 89° |
| 2026-05-06 04:39 | 36.07827 | -115.13137 | 2067 ft | 20 kts | 91° |
| 2026-05-06 04:40 | 36.07828 | -115.12954 | 2060 ft | 21 kts | 89° |
| 2026-05-06 04:40 | 36.07828 | -115.12766 | 2057 ft | 22 kts | 90° |
| 2026-05-06 04:40 | 36.07812 | -115.12617 | 2054 ft | 11 kts | 139° |
| 2026-05-06 04:40 | 36.07740 | -115.12599 | 2055 ft | 9 kts | 177° |
| 2026-05-06 04:41 | 36.07683 | -115.12599 | 2057 ft | 6 kts | 182° |
| 2026-05-06 04:41 | 36.07648 | -115.12611 | 2057 ft | 3 kts | 216° |
| 2026-05-06 04:41 | 36.07641 | -115.12625 | 2058 ft | 0 kts | 262° |
| 2026-05-06 04:41 | 36.07642 | -115.12637 | 2058 ft | 3 kts | 275° |
| 2026-05-06 04:42 | 36.07642 | -115.12740 | 2060 ft | 28 kts | 270° |
| 2026-05-06 04:42 | 36.07641 | -115.13467 | 2078 ft | 140 kts | 269° |
| 2026-05-06 04:42 | 36.07641 | -115.14986 | 2355 ft | 201 kts | 267° |
| 2026-05-06 04:42 | 36.07634 | -115.16855 | 3123 ft | 239 kts | 268° |
| 2026-05-06 04:43 | 36.07637 | -115.18745 | 4262 ft | 197 kts | 269° |
| 2026-05-06 04:43 | 36.07587 | -115.20588 | 4655 ft | 236 kts | 260° |
| 2026-05-06 04:43 | 36.07307 | -115.22548 | 6042 ft | 244 kts | 262° |
| 2026-05-06 04:43 | 36.06992 | -115.24619 | 7289 ft | 258 kts | 250° |
| 2026-05-06 04:44 | 36.05912 | -115.26460 | 7950 ft | 285 kts | 221° |
| 2026-05-06 04:44 | 36.04104 | -115.27530 | 7999 ft | 294 kts | 197° |
| 2026-05-06 04:44 | 36.02128 | -115.28256 | 7991 ft | 296 kts | 198° |
| 2026-05-06 04:44 | 36.00169 | -115.29057 | 7993 ft | 297 kts | 200° |
| 2026-05-06 04:45 | 35.98152 | -115.29712 | 8053 ft | 312 kts | 191° |
| 2026-05-06 04:45 | 35.96082 | -115.30193 | 9779 ft | 307 kts | 191° |
| 2026-05-06 04:45 | 35.93897 | -115.30716 | 10563 ft | 342 kts | 191° |
| 2026-05-06 04:45 | 35.91495 | -115.31298 | 11569 ft | 365 kts | 191° |
| 2026-05-06 04:46 | 35.88967 | -115.31917 | 12829 ft | 379 kts | 191° |
| 2026-05-06 04:46 | 35.86342 | -115.32561 | 14115 ft | 392 kts | 191° |
| 2026-05-06 04:46 | 35.83681 | -115.33214 | 15701 ft | 395 kts | 190° |
| 2026-05-06 04:46 | 35.80973 | -115.33878 | 17096 ft | 403 kts | 190° |
| 2026-05-06 04:47 | 35.78234 | -115.34548 | 18469 ft | 412 kts | 189° |
| 2026-05-06 04:47 | 35.75409 | -115.35240 | 19798 ft | 422 kts | 189° |
| 2026-05-06 04:47 | 35.72510 | -115.35950 | 21139 ft | 432 kts | 189° |
| 2026-05-06 04:47 | 35.69536 | -115.36677 | 22416 ft | 442 kts | 188° |
| 2026-05-06 04:48 | 35.66501 | -115.37418 | 23738 ft | 451 kts | 188° |
| 2026-05-06 04:48 | 35.63412 | -115.38172 | 24785 ft | 463 kts | 187° |
| 2026-05-06 04:48 | 35.60247 | -115.38721 | 25817 ft | 465 kts | 176° |
| 2026-05-06 04:48 | 35.56990 | -115.38526 | 26792 ft | 472 kts | 171° |
| 2026-05-06 04:49 | 35.53687 | -115.38273 | 27720 ft | 482 kts | 170° |
| 2026-05-06 04:49 | 35.50349 | -115.38029 | 27982 ft | 479 kts | 170° |
| 2026-05-06 04:49 | 35.47068 | -115.37794 | 28008 ft | 481 kts | 171° |
| 2026-05-06 04:49 | 35.43681 | -115.38208 | 27998 ft | 498 kts | 190° |
| 2026-05-06 04:50 | 35.40464 | -115.39870 | 28029 ft | 504 kts | 205° |
| 2026-05-06 04:50 | 35.34240 | -115.43902 | 28035 ft | 503 kts | 205° |
| 2026-05-06 04:51 | 35.28016 | -115.47881 | 28031 ft | 503 kts | 205° |
| 2026-05-06 04:51 | 35.21787 | -115.51850 | 28036 ft | 506 kts | 205° |
| 2026-05-06 04:52 | 35.15569 | -115.55805 | 28035 ft | 504 kts | 205° |
| 2026-05-06 04:52 | 35.12576 | -115.57941 | 28013 ft | 506 kts | 216° |
| 2026-05-06 04:52 | 35.10014 | -115.60907 | 28043 ft | 508 kts | 226° |
| 2026-05-06 04:53 | 35.05160 | -115.67124 | 28015 ft | 506 kts | 225° |
| 2026-05-06 04:53 | 35.00274 | -115.73364 | 27944 ft | 510 kts | 226° |
| 2026-05-06 04:53 | 34.97806 | -115.76505 | 27915 ft | 507 kts | 226° |
| 2026-05-06 04:54 | 34.95377 | -115.79603 | 27921 ft | 506 kts | 226° |
| 2026-05-06 04:54 | 34.92963 | -115.82675 | 27919 ft | 506 kts | 226° |
| 2026-05-06 04:54 | 34.90517 | -115.85784 | 27925 ft | 506 kts | 226° |
| 2026-05-06 04:54 | 34.88078 | -115.88882 | 27914 ft | 503 kts | 226° |
| 2026-05-06 04:55 | 34.85672 | -115.91937 | 27921 ft | 504 kts | 226° |
| 2026-05-06 04:55 | 34.83254 | -115.95004 | 27912 ft | 504 kts | 226° |
| 2026-05-06 04:55 | 34.80833 | -115.98069 | 27921 ft | 502 kts | 226° |
| 2026-05-06 04:55 | 34.78401 | -116.01150 | 27919 ft | 503 kts | 226° |
| 2026-05-06 04:56 | 34.76004 | -116.04192 | 27916 ft | 500 kts | 227° |
| 2026-05-06 04:56 | 34.73615 | -116.07243 | 27919 ft | 498 kts | 227° |
| 2026-05-06 04:56 | 34.71209 | -116.10307 | 27920 ft | 498 kts | 227° |
| 2026-05-06 04:56 | 34.68833 | -116.13332 | 27920 ft | 499 kts | 227° |
| 2026-05-06 04:57 | 34.66435 | -116.16377 | 27928 ft | 496 kts | 227° |
| 2026-05-06 04:57 | 34.64059 | -116.19400 | 27933 ft | 494 kts | 227° |
| 2026-05-06 04:57 | 34.61711 | -116.22376 | 27942 ft | 494 kts | 227° |
| 2026-05-06 04:57 | 34.59348 | -116.25375 | 27945 ft | 493 kts | 227° |
| 2026-05-06 04:58 | 34.56970 | -116.28390 | 27953 ft | 492 kts | 227° |
| 2026-05-06 04:58 | 34.55049 | -116.30820 | 27959 ft | 489 kts | 227° |
| 2026-05-06 04:58 | 34.52699 | -116.33794 | 27953 ft | 492 kts | 227° |
| 2026-05-06 04:58 | 34.50332 | -116.36785 | 27942 ft | 490 kts | 227° |
| 2026-05-06 04:59 | 34.47982 | -116.39751 | 27933 ft | 489 kts | 227° |
| 2026-05-06 04:59 | 34.45615 | -116.42740 | 27678 ft | 491 kts | 227° |
| 2026-05-06 04:59 | 34.43277 | -116.45687 | 27218 ft | 483 kts | 227° |
| 2026-05-06 04:59 | 34.41238 | -116.48891 | 26689 ft | 474 kts | 242° |
| 2026-05-06 05:00 | 34.39733 | -116.52433 | 26189 ft | 471 kts | 245° |
| 2026-05-06 05:00 | 34.38282 | -116.55962 | 25669 ft | 464 kts | 245° |
| 2026-05-06 05:00 | 34.36859 | -116.59419 | 25163 ft | 458 kts | 245° |
| 2026-05-06 05:00 | 34.35449 | -116.62838 | 24648 ft | 445 kts | 245° |
| 2026-05-06 05:01 | 34.34095 | -116.66119 | 24163 ft | 433 kts | 244° |
| 2026-05-06 05:01 | 34.32781 | -116.69341 | 23811 ft | 423 kts | 245° |
| 2026-05-06 05:01 | 34.31508 | -116.72513 | 23368 ft | 417 kts | 245° |
| 2026-05-06 05:01 | 34.30260 | -116.75617 | 22922 ft | 413 kts | 245° |
| 2026-05-06 05:02 | 34.29008 | -116.78731 | 22470 ft | 407 kts | 245° |
| 2026-05-06 05:02 | 34.27784 | -116.81769 | 22021 ft | 404 kts | 245° |
| 2026-05-06 05:02 | 34.26553 | -116.84820 | 21574 ft | 402 kts | 245° |
| 2026-05-06 05:02 | 34.25352 | -116.87798 | 21148 ft | 397 kts | 245° |
| 2026-05-06 05:03 | 34.24142 | -116.90792 | 20725 ft | 394 kts | 245° |
| 2026-05-06 05:03 | 34.22950 | -116.93740 | 20299 ft | 389 kts | 245° |
| 2026-05-06 05:03 | 34.21761 | -116.96680 | 19861 ft | 388 kts | 245° |
| 2026-05-06 05:03 | 34.20727 | -116.99663 | 19441 ft | 383 kts | 253° |
| 2026-05-06 05:04 | 34.19896 | -117.02762 | 19001 ft | 381 kts | 254° |
| 2026-05-06 05:04 | 34.19093 | -117.05753 | 18597 ft | 377 kts | 253° |
| 2026-05-06 05:04 | 34.18283 | -117.08752 | 18195 ft | 375 kts | 253° |
| 2026-05-06 05:04 | 34.17477 | -117.11734 | 17799 ft | 371 kts | 253° |
| 2026-05-06 05:05 | 34.16665 | -117.14727 | 17376 ft | 370 kts | 253° |
| 2026-05-06 05:05 | 34.15869 | -117.17632 | 16974 ft | 367 kts | 253° |
| 2026-05-06 05:05 | 34.15063 | -117.20564 | 16587 ft | 367 kts | 253° |
| 2026-05-06 05:05 | 34.14270 | -117.23446 | 16154 ft | 364 kts | 253° |
| 2026-05-06 05:06 | 34.13476 | -117.26334 | 15721 ft | 361 kts | 253° |
| 2026-05-06 05:06 | 34.12685 | -117.29204 | 15320 ft | 358 kts | 253° |
| 2026-05-06 05:06 | 34.11900 | -117.32048 | 14919 ft | 358 kts | 253° |
| 2026-05-06 05:06 | 34.11119 | -117.34875 | 14527 ft | 355 kts | 253° |
| 2026-05-06 05:07 | 34.10357 | -117.37685 | 14131 ft | 348 kts | 255° |
| 2026-05-06 05:07 | 34.09669 | -117.40440 | 13748 ft | 340 kts | 255° |
| 2026-05-06 05:07 | 34.08987 | -117.43172 | 13376 ft | 338 kts | 255° |
| 2026-05-06 05:07 | 34.08318 | -117.45847 | 13009 ft | 336 kts | 255° |
| 2026-05-06 05:08 | 34.07645 | -117.48530 | 12636 ft | 335 kts | 255° |
| 2026-05-06 05:08 | 34.07074 | -117.51222 | 12274 ft | 332 kts | 261° |
| 2026-05-06 05:08 | 34.06618 | -117.53964 | 11914 ft | 331 kts | 261° |
| 2026-05-06 05:08 | 34.06169 | -117.56650 | 11553 ft | 328 kts | 261° |
| 2026-05-06 05:09 | 34.05718 | -117.59325 | 11193 ft | 328 kts | 261° |
| 2026-05-06 05:09 | 34.05265 | -117.62009 | 10836 ft | 324 kts | 261° |
| 2026-05-06 05:09 | 34.04885 | -117.64256 | 10529 ft | 318 kts | 261° |
| 2026-05-06 05:10 | 34.04525 | -117.66378 | 10227 ft | 312 kts | 260° |
| 2026-05-06 05:10 | 34.04099 | -117.68893 | 9887 ft | 306 kts | 260° |
| 2026-05-06 05:10 | 34.03677 | -117.71381 | 9553 ft | 300 kts | 260° |
| 2026-05-06 05:10 | 34.03261 | -117.73823 | 9227 ft | 294 kts | 260° |
| 2026-05-06 05:11 | 34.02851 | -117.76233 | 8905 ft | 292 kts | 260° |
| 2026-05-06 05:11 | 34.02450 | -117.78586 | 8593 ft | 288 kts | 260° |
| 2026-05-06 05:11 | 34.02045 | -117.80956 | 8278 ft | 287 kts | 260° |
| 2026-05-06 05:11 | 34.01644 | -117.83303 | 7962 ft | 285 kts | 260° |
| 2026-05-06 05:12 | 34.01249 | -117.85616 | 7649 ft | 282 kts | 260° |
| 2026-05-06 05:12 | 34.00850 | -117.87943 | 7338 ft | 281 kts | 259° |
| 2026-05-06 05:12 | 34.00457 | -117.90235 | 7031 ft | 278 kts | 260° |
| 2026-05-06 05:12 | 34.00071 | -117.92484 | 6729 ft | 278 kts | 260° |
| 2026-05-06 05:13 | 33.99679 | -117.94761 | 6421 ft | 275 kts | 260° |
| 2026-05-06 05:13 | 33.99291 | -117.97018 | 6116 ft | 274 kts | 260° |
| 2026-05-06 05:13 | 33.98910 | -117.99233 | 5818 ft | 272 kts | 260° |
| 2026-05-06 05:13 | 33.98523 | -118.01475 | 5515 ft | 271 kts | 259° |
| 2026-05-06 05:14 | 33.98141 | -118.03684 | 5216 ft | 269 kts | 259° |
| 2026-05-06 05:14 | 33.97762 | -118.05885 | 4919 ft | 267 kts | 259° |
| 2026-05-06 05:14 | 33.97385 | -118.08056 | 4590 ft | 261 kts | 259° |
| 2026-05-06 05:14 | 33.97028 | -118.10112 | 4321 ft | 243 kts | 259° |
| 2026-05-06 05:15 | 33.96697 | -118.12026 | 4068 ft | 229 kts | 259° |
| 2026-05-06 05:15 | 33.96376 | -118.13868 | 3822 ft | 222 kts | 259° |
| 2026-05-06 05:15 | 33.96061 | -118.15680 | 3587 ft | 218 kts | 259° |
| 2026-05-06 05:15 | 33.95832 | -118.17475 | 3195 ft | 220 kts | 264° |
| 2026-05-06 05:16 | 33.95655 | -118.19285 | 2968 ft | 213 kts | 264° |
| 2026-05-06 05:16 | 33.95488 | -118.21047 | 2871 ft | 211 kts | 264° |
| 2026-05-06 05:16 | 33.95316 | -118.22808 | 2606 ft | 209 kts | 263° |
| 2026-05-06 05:16 | 33.95156 | -118.24416 | 2335 ft | 185 kts | 263° |
| 2026-05-06 05:17 | 33.95001 | -118.25922 | 2030 ft | 181 kts | 262° |
| 2026-05-06 05:17 | 33.94839 | -118.27428 | 1744 ft | 173 kts | 262° |
| 2026-05-06 05:17 | 33.94699 | -118.28740 | 1523 ft | 150 kts | 262° |
| 2026-05-06 05:17 | 33.94569 | -118.29936 | 1277 ft | 141 kts | 262° |
| 2026-05-06 05:18 | 33.94445 | -118.31066 | 1289 ft | 134 kts | 262° |
| 2026-05-06 05:18 | 33.94325 | -118.32192 | 1220 ft | 135 kts | 263° |
| 2026-05-06 05:18 | 33.94215 | -118.33323 | 1080 ft | 136 kts | 263° |
| 2026-05-06 05:18 | 33.94109 | -118.34435 | 879 ft | 133 kts | 263° |
| 2026-05-06 05:19 | 33.94006 | -118.35527 | 635 ft | 129 kts | 263° |
| 2026-05-06 05:19 | 33.93905 | -118.36592 | 432 ft | 127 kts | 262° |
| 2026-05-06 05:19 | 33.93800 | -118.37640 | 276 ft | 125 kts | 262° |
| 2026-05-06 05:19 | 33.93692 | -118.38691 | 114 ft | 124 kts | 262° |
| 2026-05-06 05:20 | 33.93598 | -118.39598 | 110 ft | 85 kts | 265° |
| 2026-05-06 05:20 | 33.93550 | -118.40037 | 117 ft | 47 kts | 257° |
| 2026-05-06 05:20 | 33.93449 | -118.40234 | 120 ft | 20 kts | 184° |
| 2026-05-06 05:20 | 33.93407 | -118.40168 | 119 ft | 14 kts | 72° |
| 2026-05-06 05:21 | 33.93436 | -118.40022 | 117 ft | 11 kts | 86° |
| 2026-05-06 05:21 | 33.93446 | -118.39897 | 115 ft | 13 kts | 79° |
| 2026-05-06 05:21 | 33.93457 | -118.39816 | 114 ft | 14 kts | 83° |
| 2026-05-06 05:21 | 33.93459 | -118.39799 | 113 ft | 0 kts | 83° |
| 2026-05-06 05:22 | 33.93467 | -118.39717 | 112 ft | 18 kts | 83° |
| 2026-05-06 05:22 | 33.93483 | -118.39560 | 110 ft | 19 kts | 82° |
| 2026-05-06 05:22 | 33.93494 | -118.39413 | 108 ft | 12 kts | 112° |
| 2026-05-06 05:22 | 33.93428 | -118.39423 | 108 ft | 11 kts | 272° |
| 2026-05-06 05:23 | 33.93427 | -118.39507 | 110 ft | 9 kts | 261° |
| 2026-05-06 05:23 | 33.93413 | -118.39570 | 110 ft | 0 kts | 266° |